sensor_id;sensor_type;location;lat;lon;timestamp;pressure;altitude;pressure_sealevel;temperature;humidity
57086;BME280;42964;42.910;23.792;2023-05-03T00:00:08;97942.97;;;14.25;33.91
57086;BME280;42964;42.910;23.792;2023-05-03T00:05:08;97926.47;;;14.22;33.39
57086;BME280;42964;42.910;23.792;2023-05-03T00:10:11;97872.78;;;14.02;34.03
57086;BME280;42964;42.910;23.792;2023-05-03T00:15:13;97903.94;;;14.16;33.21
57086;BME280;42964;42.910;23.792;2023-05-03T00:20:12;97924.63;;;14.28;33.28
57086;BME280;42964;42.910;23.792;2023-05-03T00:25:12;97891.78;;;14.15;32.77
57086;BME280;42964;42.910;23.792;2023-05-03T00:30:12;97930.63;;;14.36;31.46
57086;BME280;42964;42.910;23.792;2023-05-03T00:35:11;97927.13;;;14.37;31.11
57086;BME280;42964;42.910;23.792;2023-05-03T00:40:11;97923.53;;;14.48;31.82
57086;BME280;42964;42.910;23.792;2023-05-03T00:45:11;97926.09;;;14.51;31.12
57086;BME280;42964;42.910;23.792;2023-05-03T00:50:10;97933.00;;;14.55;30.59
57086;BME280;42964;42.910;23.792;2023-05-03T00:55:10;97864.78;;;14.16;30.41
57086;BME280;42964;42.910;23.792;2023-05-03T01:00:10;97947.81;;;14.53;30.48
57086;BME280;42964;42.910;23.792;2023-05-03T01:05:11;97933.13;;;14.44;30.88
57086;BME280;42964;42.910;23.792;2023-05-03T01:10:15;97939.44;;;14.26;31.61
57086;BME280;42964;42.910;23.792;2023-05-03T01:20:42;97960.63;;;14.03;33.02
57086;BME280;42964;42.910;23.792;2023-05-03T01:25:41;97956.13;;;14.16;32.92
57086;BME280;42964;42.910;23.792;2023-05-03T01:30:40;97944.94;;;14.08;33.63
57086;BME280;42964;42.910;23.792;2023-05-03T01:41:09;97937.16;;;14.03;34.25
57086;BME280;42964;42.910;23.792;2023-05-03T01:46:09;97924.28;;;13.88;34.81
57086;BME280;42964;42.910;23.792;2023-05-03T01:51:08;97928.53;;;13.95;35.44
57086;BME280;42964;42.910;23.792;2023-05-03T01:56:08;97925.03;;;13.96;36.20
57086;BME280;42964;42.910;23.792;2023-05-03T02:01:07;97921.56;;;13.97;36.25
57086;BME280;42964;42.910;23.792;2023-05-03T02:06:06;97917.19;;;13.97;36.58
57086;BME280;42964;42.910;23.792;2023-05-03T02:11:05;97922.47;;;13.94;36.46
57086;BME280;42964;42.910;23.792;2023-05-03T02:16:04;97918.09;;;13.93;36.72
57086;BME280;42964;42.910;23.792;2023-05-03T02:21:03;97912.09;;;13.88;37.05
57086;BME280;42964;42.910;23.792;2023-05-03T02:26:02;97922.53;;;13.88;37.37
57086;BME280;42964;42.910;23.792;2023-05-03T02:31:01;97912.97;;;13.87;37.22
57086;BME280;42964;42.910;23.792;2023-05-03T02:36:00;97933.16;;;13.71;37.68
57086;BME280;42964;42.910;23.792;2023-05-03T02:40:59;97928.75;;;13.78;37.16
57086;BME280;42964;42.910;23.792;2023-05-03T02:45:58;97916.66;;;13.71;37.44
57086;BME280;42964;42.910;23.792;2023-05-03T02:50:57;97928.84;;;13.69;37.66
57086;BME280;42964;42.910;23.792;2023-05-03T02:55:56;97942.78;;;13.63;37.60
57086;BME280;42964;42.910;23.792;2023-05-03T03:00:54;97947.19;;;13.61;37.88
57086;BME280;42964;42.910;23.792;2023-05-03T03:05:53;97952.34;;;13.63;37.60
57086;BME280;42964;42.910;23.792;2023-05-03T03:10:52;97937.75;;;13.43;38.65
57086;BME280;42964;42.910;23.792;2023-05-03T03:15:51;97945.66;;;13.34;39.15
57086;BME280;42964;42.910;23.792;2023-05-03T03:20:50;97938.66;;;13.41;39.05
57086;BME280;42964;42.910;23.792;2023-05-03T03:25:49;97939.50;;;13.40;38.80
57086;BME280;42964;42.910;23.792;2023-05-03T03:30:48;97936.00;;;13.45;38.89
57086;BME280;42964;42.910;23.792;2023-05-03T03:35:47;97943.94;;;13.33;39.51
57086;BME280;42964;42.910;23.792;2023-05-03T03:40:46;97937.09;;;13.20;39.38
57086;BME280;42964;42.910;23.792;2023-05-03T03:45:45;97939.78;;;13.09;39.55
57086;BME280;42964;42.910;23.792;2023-05-03T03:50:44;97955.41;;;13.10;39.56
57086;BME280;42964;42.910;23.792;2023-05-03T03:55:43;97965.78;;;13.15;39.94
57086;BME280;42964;42.910;23.792;2023-05-03T04:00:42;97973.63;;;13.17;39.92
57086;BME280;42964;42.910;23.792;2023-05-03T04:05:41;97971.91;;;13.12;39.66
57086;BME280;42964;42.910;23.792;2023-05-03T04:10:40;97979.59;;;13.23;39.93
57086;BME280;42964;42.910;23.792;2023-05-03T04:15:39;97989.22;;;13.18;40.69
57086;BME280;42964;42.910;23.792;2023-05-03T04:20:38;97993.53;;;13.22;40.34
57086;BME280;42964;42.910;23.792;2023-05-03T04:25:37;97990.84;;;13.30;40.53
57086;BME280;42964;42.910;23.792;2023-05-03T04:30:36;97993.47;;;13.30;40.74
57086;BME280;42964;42.910;23.792;2023-05-03T04:35:35;98007.31;;;13.35;40.80
57086;BME280;42964;42.910;23.792;2023-05-03T04:40:34;98012.53;;;13.36;41.49
57086;BME280;42964;42.910;23.792;2023-05-03T04:45:33;98018.59;;;13.40;41.41
57086;BME280;42964;42.910;23.792;2023-05-03T04:50:32;98019.50;;;13.34;41.55
57086;BME280;42964;42.910;23.792;2023-05-03T04:55:31;98023.84;;;13.35;41.11
57086;BME280;42964;42.910;23.792;2023-05-03T05:00:30;98038.59;;;13.36;41.45
57086;BME280;42964;42.910;23.792;2023-05-03T05:05:29;98040.34;;;13.38;41.56
57086;BME280;42964;42.910;23.792;2023-05-03T05:10:28;98036.09;;;13.23;42.08
57086;BME280;42964;42.910;23.792;2023-05-03T05:15:27;98056.91;;;13.27;42.91
57086;BME280;42964;42.910;23.792;2023-05-03T05:20:26;98068.19;;;13.29;43.96
57086;BME280;42964;42.910;23.792;2023-05-03T05:25:25;98084.75;;;13.24;45.14
57086;BME280;42964;42.910;23.792;2023-05-03T05:30:24;98082.16;;;13.16;45.77
57086;BME280;42964;42.910;23.792;2023-05-03T05:35:23;98092.63;;;13.08;46.73
57086;BME280;42964;42.910;23.792;2023-05-03T05:40:22;98090.97;;;12.95;46.51
57086;BME280;42964;42.910;23.792;2023-05-03T05:45:21;98089.22;;;12.97;47.22
57086;BME280;42964;42.910;23.792;2023-05-03T05:50:20;98097.84;;;13.08;45.68
57086;BME280;42964;42.910;23.792;2023-05-03T05:55:19;98102.19;;;13.12;46.29
57086;BME280;42964;42.910;23.792;2023-05-03T06:00:19;98100.41;;;13.18;46.98
57086;BME280;42964;42.910;23.792;2023-05-03T06:05:19;98115.13;;;13.26;48.19
57086;BME280;42964;42.910;23.792;2023-05-03T06:10:18;98034.59;;;12.85;49.75
57086;BME280;42964;42.910;23.792;2023-05-03T06:15:17;98110.75;;;13.33;50.00
57086;BME280;42964;42.910;23.792;2023-05-03T06:20:16;98045.72;;;13.11;50.38
57086;BME280;42964;42.910;23.792;2023-05-03T06:25:16;98108.00;;;13.56;49.59
57086;BME280;42964;42.910;23.792;2023-05-03T06:30:15;98097.50;;;13.67;49.34
57086;BME280;42964;42.910;23.792;2023-05-03T06:35:14;98061.06;;;13.56;49.49
57086;BME280;42964;42.910;23.792;2023-05-03T06:40:13;98093.75;;;13.98;48.78
57086;BME280;42964;42.910;23.792;2023-05-03T06:45:13;98093.63;;;14.11;47.48
57086;BME280;42964;42.910;23.792;2023-05-03T06:50:12;98090.84;;;14.26;48.20
57086;BME280;42964;42.910;23.792;2023-05-03T06:55:11;98091.47;;;14.50;47.48
57086;BME280;42964;42.910;23.792;2023-05-03T07:00:10;98085.88;;;14.82;45.81
57086;BME280;42964;42.910;23.792;2023-05-03T07:05:09;98082.38;;;14.86;47.10
57086;BME280;42964;42.910;23.792;2023-05-03T07:10:08;98070.03;;;14.94;46.78
57086;BME280;42964;42.910;23.792;2023-05-03T07:15:09;98058.13;;;15.37;46.78
57086;BME280;42964;42.910;23.792;2023-05-03T07:20:08;98047.19;;;15.67;45.42
57086;BME280;42964;42.910;23.792;2023-05-03T07:25:07;98043.28;;;15.93;46.37
57086;BME280;42964;42.910;23.792;2023-05-03T07:30:07;98041.16;;;15.62;46.97
57086;BME280;42964;42.910;23.792;2023-05-03T07:35:06;98047.13;;;15.71;48.81
57086;BME280;42964;42.910;23.792;2023-05-03T07:40:06;98057.78;;;15.58;50.75
57086;BME280;42964;42.910;23.792;2023-05-03T07:45:05;98057.16;;;15.44;52.76
57086;BME280;42964;42.910;23.792;2023-05-03T07:50:06;98061.47;;;15.45;53.32
57086;BME280;42964;42.910;23.792;2023-05-03T07:55:05;98054.16;;;15.11;53.65
57086;BME280;42964;42.910;23.792;2023-05-03T08:00:05;98049.13;;;14.94;53.68
57086;BME280;42964;42.910;23.792;2023-05-03T08:05:09;98046.34;;;15.08;53.69
57086;BME280;42964;42.910;23.792;2023-05-03T08:10:09;98056.31;;;15.42;53.51
57086;BME280;42964;42.910;23.792;2023-05-03T08:15:08;98051.47;;;15.72;52.93
57086;BME280;42964;42.910;23.792;2023-05-03T08:20:08;98046.06;;;15.82;51.67
57086;BME280;42964;42.910;23.792;2023-05-03T08:25:08;98033.69;;;15.92;51.43
57086;BME280;42964;42.910;23.792;2023-05-03T08:30:07;98047.03;;;16.26;50.88
57086;BME280;42964;42.910;23.792;2023-05-03T08:35:07;98045.63;;;16.54;49.73
57086;BME280;42964;42.910;23.792;2023-05-03T08:40:07;98053.72;;;16.86;48.29
57086;BME280;42964;42.910;23.792;2023-05-03T08:45:11;98048.94;;;17.04;46.43
57086;BME280;42964;42.910;23.792;2023-05-03T08:50:12;98035.41;;;17.60;45.71
57086;BME280;42964;42.910;23.792;2023-05-03T08:55:11;98042.06;;;18.09;44.07
57086;BME280;42964;42.910;23.792;2023-05-03T09:00:10;98033.25;;;18.10;43.23
57086;BME280;42964;42.910;23.792;2023-05-03T09:10:22;98023.44;;;18.48;41.24
57086;BME280;42964;42.910;23.792;2023-05-03T09:15:22;98026.69;;;18.57;41.76
57086;BME280;42964;42.910;23.792;2023-05-03T09:20:33;98017.63;;;18.68;40.86
57086;BME280;42964;42.910;23.792;2023-05-03T09:25:49;97972.44;;;18.25;42.28
57086;BME280;42964;42.910;23.792;2023-05-03T09:30:50;98015.44;;;18.21;42.98
57086;BME280;42964;42.910;23.792;2023-05-03T09:36:03;98018.03;;;17.90;43.14
57086;BME280;42964;42.910;23.792;2023-05-03T09:41:02;98013.06;;;17.79;44.03
57086;BME280;42964;42.910;23.792;2023-05-03T09:46:11;97998.56;;;17.63;44.99
57086;BME280;42964;42.910;23.792;2023-05-03T09:51:11;98003.63;;;17.36;45.65
57086;BME280;42964;42.910;23.792;2023-05-03T09:56:10;97999.38;;;17.66;45.09
57086;BME280;42964;42.910;23.792;2023-05-03T10:01:13;97955.66;;;17.65;45.82
57086;BME280;42964;42.910;23.792;2023-05-03T10:06:37;97989.22;;;18.19;45.35
57086;BME280;42964;42.910;23.792;2023-05-03T10:11:43;97980.44;;;18.81;44.52
57086;BME280;42964;42.910;23.792;2023-05-03T10:16:49;97994.94;;;19.23;44.00
57086;BME280;42964;42.910;23.792;2023-05-03T10:27:06;97919.34;;;19.28;44.34
57086;BME280;42964;42.910;23.792;2023-05-03T10:37:32;97943.16;;;19.77;43.17
57086;BME280;42964;42.910;23.792;2023-05-03T10:42:32;97954.91;;;19.92;43.21
57086;BME280;42964;42.910;23.792;2023-05-03T10:47:31;97954.19;;;20.12;42.56
57086;BME280;42964;42.910;23.792;2023-05-03T10:57:42;97955.97;;;20.60;42.28
57086;BME280;42964;42.910;23.792;2023-05-03T11:08:18;97945.88;;;20.47;41.85
57086;BME280;42964;42.910;23.792;2023-05-03T11:13:17;97936.75;;;20.80;42.25
57086;BME280;42964;42.910;23.792;2023-05-03T11:18:16;97939.13;;;21.08;41.40
57086;BME280;42964;42.910;23.792;2023-05-03T11:23:15;97940.28;;;20.79;41.71
57086;BME280;42964;42.910;23.792;2023-05-03T11:28:14;97942.81;;;20.58;41.86
57086;BME280;42964;42.910;23.792;2023-05-03T11:33:13;97935.72;;;20.60;42.07
57086;BME280;42964;42.910;23.792;2023-05-03T11:38:13;97931.69;;;20.74;41.96
57086;BME280;42964;42.910;23.792;2023-05-03T11:43:12;97929.84;;;21.20;41.15
57086;BME280;42964;42.910;23.792;2023-05-03T11:48:12;97898.84;;;21.03;42.23
57086;BME280;42964;42.910;23.792;2023-05-03T11:53:12;97930.16;;;21.34;41.56
57086;BME280;42964;42.910;23.792;2023-05-03T11:58:18;97911.28;;;21.84;39.70
57086;BME280;42964;42.910;23.792;2023-05-03T12:03:20;97905.22;;;22.03;39.71
57086;BME280;42964;42.910;23.792;2023-05-03T12:08:20;97911.31;;;22.43;38.91
57086;BME280;42964;42.910;23.792;2023-05-03T12:13:35;97904.81;;;22.12;38.83
57086;BME280;42964;42.910;23.792;2023-05-03T12:18:55;97901.50;;;21.86;40.25
57086;BME280;42964;42.910;23.792;2023-05-03T12:24:01;97899.47;;;21.93;39.31
57086;BME280;42964;42.910;23.792;2023-05-03T12:29:00;97890.28;;;21.40;40.48
57086;BME280;42964;42.910;23.792;2023-05-03T12:33:59;97885.25;;;20.69;41.75
57086;BME280;42964;42.910;23.792;2023-05-03T12:38:59;97875.78;;;20.18;42.73
57086;BME280;42964;42.910;23.792;2023-05-03T12:43:58;97869.81;;;20.37;42.59
57086;BME280;42964;42.910;23.792;2023-05-03T12:48:57;97872.97;;;20.23;42.87
57086;BME280;42964;42.910;23.792;2023-05-03T12:53:56;97872.47;;;20.13;42.98
57086;BME280;42964;42.910;23.792;2023-05-03T12:58:55;97856.72;;;20.12;43.61
57086;BME280;42964;42.910;23.792;2023-05-03T13:03:54;97853.44;;;20.28;44.05
57086;BME280;42964;42.910;23.792;2023-05-03T13:08:53;97855.03;;;20.33;44.12
57086;BME280;42964;42.910;23.792;2023-05-03T13:13:53;97807.75;;;20.06;44.63
57086;BME280;42964;42.910;23.792;2023-05-03T13:18:53;97846.59;;;20.01;45.58
57086;BME280;42964;42.910;23.792;2023-05-03T13:23:54;97842.16;;;19.53;47.68
57086;BME280;42964;42.910;23.792;2023-05-03T13:28:53;97833.22;;;19.33;48.41
57086;BME280;42964;42.910;23.792;2023-05-03T13:33:52;97829.78;;;19.31;47.59
57086;BME280;42964;42.910;23.792;2023-05-03T13:38:54;97828.69;;;19.37;48.25
57086;BME280;42964;42.910;23.792;2023-05-03T13:43:53;97835.19;;;19.52;49.87
57086;BME280;42964;42.910;23.792;2023-05-03T13:48:52;97796.56;;;19.27;52.65
57086;BME280;42964;42.910;23.792;2023-05-03T13:53:53;97862.66;;;19.44;55.13
57086;BME280;42964;42.910;23.792;2023-05-03T13:58:53;97822.69;;;18.81;55.27
57086;BME280;42964;42.910;23.792;2023-05-03T14:03:53;97821.09;;;18.48;57.69
57086;BME280;42964;42.910;23.792;2023-05-03T14:08:53;97892.41;;;18.37;59.59
57086;BME280;42964;42.910;23.792;2023-05-03T14:13:54;97912.59;;;18.05;62.39
57086;BME280;42964;42.910;23.792;2023-05-03T14:18:53;97899.72;;;17.63;60.83
57086;BME280;42964;42.910;23.792;2023-05-03T14:23:52;97880.00;;;17.14;64.09
57086;BME280;42964;42.910;23.792;2023-05-03T14:28:51;97887.94;;;16.36;74.77
57086;BME280;42964;42.910;23.792;2023-05-03T14:33:50;97891.31;;;16.01;76.94
57086;BME280;42964;42.910;23.792;2023-05-03T14:38:48;97899.28;;;15.48;78.27
57086;BME280;42964;42.910;23.792;2023-05-03T14:43:47;97897.88;;;15.29;81.80
57086;BME280;42964;42.910;23.792;2023-05-03T14:48:46;97902.19;;;15.31;83.93
57086;BME280;42964;42.910;23.792;2023-05-03T14:53:45;97909.94;;;15.39;84.53
57086;BME280;42964;42.910;23.792;2023-05-03T14:58:44;97932.53;;;15.41;85.34
57086;BME280;42964;42.910;23.792;2023-05-03T15:03:43;97930.88;;;15.36;84.67
57086;BME280;42964;42.910;23.792;2023-05-03T15:08:42;97922.19;;;15.34;83.48
57086;BME280;42964;42.910;23.792;2023-05-03T15:13:40;97894.41;;;15.28;83.64
57086;BME280;42964;42.910;23.792;2023-05-03T15:18:39;97904.72;;;15.36;82.65
57086;BME280;42964;42.910;23.792;2023-05-03T15:23:40;97907.25;;;15.40;81.80
57086;BME280;42964;42.910;23.792;2023-05-03T15:28:39;97896.28;;;15.21;80.53
57086;BME280;42964;42.910;23.792;2023-05-03T15:33:41;97901.56;;;15.18;79.71
57086;BME280;42964;42.910;23.792;2023-05-03T15:38:40;97897.88;;;15.29;80.65
57086;BME280;42964;42.910;23.792;2023-05-03T15:43:39;97890.06;;;15.27;79.54
57086;BME280;42964;42.910;23.792;2023-05-03T15:48:38;97901.41;;;15.28;80.13
57086;BME280;42964;42.910;23.792;2023-05-03T15:53:37;97914.34;;;15.34;81.56
57086;BME280;42964;42.910;23.792;2023-05-03T15:58:36;97928.19;;;15.40;81.55
57086;BME280;42964;42.910;23.792;2023-05-03T16:03:35;97935.09;;;15.44;82.01
57086;BME280;42964;42.910;23.792;2023-05-03T16:08:34;97909.09;;;15.35;81.30
57086;BME280;42964;42.910;23.792;2023-05-03T16:13:33;97927.56;;;15.28;80.84
57086;BME280;42964;42.910;23.792;2023-05-03T16:18:32;97932.81;;;15.24;80.55
57086;BME280;42964;42.910;23.792;2023-05-03T16:23:31;97919.88;;;15.15;80.62
57086;BME280;42964;42.910;23.792;2023-05-03T16:28:30;97924.25;;;15.16;81.08
57086;BME280;42964;42.910;23.792;2023-05-03T16:33:29;97914.78;;;15.08;80.87
57086;BME280;42964;42.910;23.792;2023-05-03T16:38:28;97911.34;;;15.06;80.93
57086;BME280;42964;42.910;23.792;2023-05-03T16:43:29;97892.19;;;15.05;82.18
57086;BME280;42964;42.910;23.792;2023-05-03T16:48:28;97853.69;;;14.62;81.11
57086;BME280;42964;42.910;23.792;2023-05-03T16:53:27;97922.00;;;14.92;81.66
57086;BME280;42964;42.910;23.792;2023-05-03T16:58:26;97921.34;;;14.80;81.14
57086;BME280;42964;42.910;23.792;2023-05-03T17:03:25;97933.56;;;14.78;82.02
57086;BME280;42964;42.910;23.792;2023-05-03T17:08:24;97944.94;;;14.73;82.20
57086;BME280;42964;42.910;23.792;2023-05-03T17:13:23;97935.63;;;14.55;82.16
57086;BME280;42964;42.910;23.792;2023-05-03T17:18:22;97953.00;;;14.56;81.69
57086;BME280;42964;42.910;23.792;2023-05-03T17:23:21;97950.56;;;14.42;83.36
57086;BME280;42964;42.910;23.792;2023-05-03T17:28:20;97960.16;;;14.43;83.30
57086;BME280;42964;42.910;23.792;2023-05-03T17:33:18;97962.03;;;14.30;83.57
57086;BME280;42964;42.910;23.792;2023-05-03T17:38:17;97964.84;;;14.15;82.87
57086;BME280;42964;42.910;23.792;2023-05-03T17:43:16;97962.31;;;14.09;83.66
57086;BME280;42964;42.910;23.792;2023-05-03T17:48:15;97971.09;;;14.00;82.75
57086;BME280;42964;42.910;23.792;2023-05-03T17:53:14;97963.25;;;14.00;82.24
57086;BME280;42964;42.910;23.792;2023-05-03T17:58:14;97974.66;;;13.94;82.41
57086;BME280;42964;42.910;23.792;2023-05-03T18:03:14;97977.22;;;13.96;83.09
57086;BME280;42964;42.910;23.792;2023-05-03T18:08:14;97985.03;;;13.96;82.95
57086;BME280;42964;42.910;23.792;2023-05-03T18:13:13;97982.47;;;13.94;82.99
57086;BME280;42964;42.910;23.792;2023-05-03T18:18:11;97985.88;;;13.98;83.27
57086;BME280;42964;42.910;23.792;2023-05-03T18:23:11;97975.44;;;14.01;84.03
57086;BME280;42964;42.910;23.792;2023-05-03T18:28:10;97967.66;;;13.96;84.90
57086;BME280;42964;42.910;23.792;2023-05-03T18:33:08;97966.78;;;13.96;84.91
57086;BME280;42964;42.910;23.792;2023-05-03T18:38:07;97978.97;;;13.95;85.27
57086;BME280;42964;42.910;23.792;2023-05-03T18:43:07;97969.44;;;13.94;86.20
57086;BME280;42964;42.910;23.792;2023-05-03T18:48:06;97986.78;;;13.97;86.20
57086;BME280;42964;42.910;23.792;2023-05-03T18:53:05;97977.28;;;13.91;85.98
57086;BME280;42964;42.910;23.792;2023-05-03T18:58:04;97950.50;;;13.72;85.67
57086;BME280;42964;42.910;23.792;2023-05-03T19:03:03;97980.94;;;13.72;86.14
57086;BME280;42964;42.910;23.792;2023-05-03T19:08:03;97996.69;;;13.66;86.17
57086;BME280;42964;42.910;23.792;2023-05-03T19:13:02;98009.81;;;13.56;86.35
57086;BME280;42964;42.910;23.792;2023-05-03T19:18:01;98015.88;;;13.57;86.40
57086;BME280;42964;42.910;23.792;2023-05-03T19:23:00;98009.78;;;13.53;86.51
57086;BME280;42964;42.910;23.792;2023-05-03T19:28:00;98017.63;;;13.50;86.81
57086;BME280;42964;42.910;23.792;2023-05-03T19:32:58;98018.59;;;13.40;87.06
57086;BME280;42964;42.910;23.792;2023-05-03T19:37:58;98008.28;;;13.26;87.08
57086;BME280;42964;42.910;23.792;2023-05-03T19:42:57;98001.34;;;13.21;87.15
57086;BME280;42964;42.910;23.792;2023-05-03T19:47:56;97995.34;;;13.12;87.49
57086;BME280;42964;42.910;23.792;2023-05-03T19:52:54;98003.22;;;13.03;88.13
57086;BME280;42964;42.910;23.792;2023-05-03T19:57:53;98011.09;;;12.96;88.10
57086;BME280;42964;42.910;23.792;2023-05-03T20:02:53;98000.75;;;12.86;88.45
57086;BME280;42964;42.910;23.792;2023-05-03T20:07:52;97995.59;;;12.76;88.42
57086;BME280;42964;42.910;23.792;2023-05-03T20:12:51;98001.69;;;12.68;88.47
57086;BME280;42964;42.910;23.792;2023-05-03T20:17:52;98000.91;;;12.56;87.89
57086;BME280;42964;42.910;23.792;2023-05-03T20:22:51;97993.19;;;12.37;87.96
57086;BME280;42964;42.910;23.792;2023-05-03T20:27:50;97989.75;;;12.23;88.26
57086;BME280;42964;42.910;23.792;2023-05-03T20:32:49;97982.00;;;12.03;88.21
57086;BME280;42964;42.910;23.792;2023-05-03T20:37:47;97990.69;;;11.91;88.39
57086;BME280;42964;42.910;23.792;2023-05-03T20:42:46;97997.66;;;11.81;88.75
57086;BME280;42964;42.910;23.792;2023-05-03T20:47:45;97989.00;;;11.73;89.02
57086;BME280;42964;42.910;23.792;2023-05-03T20:52:44;97982.97;;;11.65;89.24
57086;BME280;42964;42.910;23.792;2023-05-03T20:57:43;97982.13;;;11.55;89.75
57086;BME280;42964;42.910;23.792;2023-05-03T21:02:42;97906.81;;;11.00;89.53
57086;BME280;42964;42.910;23.792;2023-05-03T21:07:41;97979.50;;;11.38;89.91
57086;BME280;42964;42.910;23.792;2023-05-03T21:12:40;97980.38;;;11.28;89.69
57086;BME280;42964;42.910;23.792;2023-05-03T21:17:39;97961.34;;;11.11;89.85
57086;BME280;42964;42.910;23.792;2023-05-03T21:22:38;97950.94;;;10.94;89.93
57086;BME280;42964;42.910;23.792;2023-05-03T21:27:37;97985.56;;;11.05;89.17
57086;BME280;42964;42.910;23.792;2023-05-03T21:32:36;97988.16;;;11.00;90.52
57086;BME280;42964;42.910;23.792;2023-05-03T21:37:35;97984.72;;;11.04;90.66
57086;BME280;42964;42.910;23.792;2023-05-03T21:42:34;97957.00;;;10.97;90.20
57086;BME280;42964;42.910;23.792;2023-05-03T21:47:33;97926.69;;;10.82;90.15
57086;BME280;42964;42.910;23.792;2023-05-03T21:52:32;97970.84;;;11.02;89.38
57086;BME280;42964;42.910;23.792;2023-05-03T21:57:31;97989.03;;;11.10;89.57
57086;BME280;42964;42.910;23.792;2023-05-03T22:02:30;97971.72;;;10.88;90.10
57086;BME280;42964;42.910;23.792;2023-05-03T22:07:29;97981.25;;;10.90;89.56
57086;BME280;42964;42.910;23.792;2023-05-03T22:12:28;97984.63;;;10.84;90.01
57086;BME280;42964;42.910;23.792;2023-05-03T22:17:27;97958.66;;;10.68;90.27
57086;BME280;42964;42.910;23.792;2023-05-03T22:22:26;97964.75;;;10.76;90.72
57086;BME280;42964;42.910;23.792;2023-05-03T22:27:25;97958.69;;;10.71;90.30
57086;BME280;42964;42.910;23.792;2023-05-03T22:32:24;97956.94;;;10.74;90.70
57086;BME280;42964;42.910;23.792;2023-05-03T22:37:23;97951.78;;;10.76;90.74
57086;BME280;42964;42.910;23.792;2023-05-03T22:42:22;97970.81;;;10.78;91.15
57086;BME280;42964;42.910;23.792;2023-05-03T22:47:21;97919.75;;;10.65;91.50
57086;BME280;42964;42.910;23.792;2023-05-03T22:52:20;97933.63;;;10.85;91.18
57086;BME280;42964;42.910;23.792;2023-05-03T22:57:19;97932.75;;;10.83;90.72
57086;BME280;42964;42.910;23.792;2023-05-03T23:02:18;97924.94;;;10.78;91.70
57086;BME280;42964;42.910;23.792;2023-05-03T23:07:17;97922.34;;;10.83;92.00
57086;BME280;42964;42.910;23.792;2023-05-03T23:12:16;97920.66;;;10.97;91.10
57086;BME280;42964;42.910;23.792;2023-05-03T23:17:16;97913.72;;;11.07;90.93
57086;BME280;42964;42.910;23.792;2023-05-03T23:22:15;97913.72;;;11.10;90.45
57086;BME280;42964;42.910;23.792;2023-05-03T23:27:14;97913.72;;;11.12;90.39
57086;BME280;42964;42.910;23.792;2023-05-03T23:32:13;97909.41;;;11.14;90.50
57086;BME280;42964;42.910;23.792;2023-05-03T23:37:12;97899.00;;;11.12;89.93
57086;BME280;42964;42.910;23.792;2023-05-03T23:42:11;97832.34;;;10.74;89.66
57086;BME280;42964;42.910;23.792;2023-05-03T23:47:10;97887.75;;;11.15;89.79
57086;BME280;42964;42.910;23.792;2023-05-03T23:52:09;97901.59;;;11.17;89.86
57086;BME280;42964;42.910;23.792;2023-05-03T23:57:08;97908.53;;;11.15;90.35
